sensor_id;sensor_type;location;lat;lon;timestamp;P1;durP1;ratioP1;P2;durP2;ratioP2
23140;SDS011;11739;54.750;9.124;2023-04-12T00:01:10;9.45;;;2.92;;
23140;SDS011;11739;54.750;9.124;2023-04-12T00:03:35;7.85;;;2.50;;
23140;SDS011;11739;54.750;9.124;2023-04-12T00:06:00;10.93;;;2.80;;
23140;SDS011;11739;54.750;9.124;2023-04-12T00:08:26;7.68;;;2.72;;
23140;SDS011;11739;54.750;9.124;2023-04-12T00:10:51;8.48;;;2.90;;
23140;SDS011;11739;54.750;9.124;2023-04-12T00:13:17;8.98;;;2.78;;
23140;SDS011;11739;54.750;9.124;2023-04-12T00:15:43;7.75;;;2.85;;
23140;SDS011;11739;54.750;9.124;2023-04-12T00:18:08;7.82;;;2.58;;
23140;SDS011;11739;54.750;9.124;2023-04-12T00:20:34;9.23;;;2.95;;
23140;SDS011;11739;54.750;9.124;2023-04-12T00:22:59;7.00;;;2.60;;
23140;SDS011;11739;54.750;9.124;2023-04-12T00:25:24;6.97;;;2.63;;
23140;SDS011;11739;54.750;9.124;2023-04-12T00:27:49;8.82;;;2.70;;
23140;SDS011;11739;54.750;9.124;2023-04-12T00:30:15;7.53;;;2.60;;
23140;SDS011;11739;54.750;9.124;2023-04-12T00:32:40;7.50;;;2.58;;
23140;SDS011;11739;54.750;9.124;2023-04-12T00:35:06;4.97;;;2.40;;
23140;SDS011;11739;54.750;9.124;2023-04-12T00:37:31;7.93;;;2.97;;
23140;SDS011;11739;54.750;9.124;2023-04-12T00:39:57;5.30;;;2.25;;
23140;SDS011;11739;54.750;9.124;2023-04-12T00:42:22;8.30;;;2.75;;
23140;SDS011;11739;54.750;9.124;2023-04-12T00:44:47;6.85;;;2.30;;
23140;SDS011;11739;54.750;9.124;2023-04-12T00:47:13;10.88;;;3.00;;
23140;SDS011;11739;54.750;9.124;2023-04-12T00:49:38;10.25;;;2.92;;
23140;SDS011;11739;54.750;9.124;2023-04-12T00:52:04;8.23;;;2.65;;
23140;SDS011;11739;54.750;9.124;2023-04-12T00:54:34;8.50;;;2.88;;
23140;SDS011;11739;54.750;9.124;2023-04-12T00:57:00;10.07;;;3.05;;
23140;SDS011;11739;54.750;9.124;2023-04-12T00:59:26;8.32;;;3.00;;
23140;SDS011;11739;54.750;9.124;2023-04-12T01:01:51;10.63;;;3.40;;
23140;SDS011;11739;54.750;9.124;2023-04-12T01:04:17;8.15;;;3.28;;
23140;SDS011;11739;54.750;9.124;2023-04-12T01:06:56;10.45;;;3.22;;
23140;SDS011;11739;54.750;9.124;2023-04-12T01:10:05;8.05;;;2.78;;
23140;SDS011;11739;54.750;9.124;2023-04-12T01:15:10;8.25;;;3.00;;
23140;SDS011;11739;54.750;9.124;2023-04-12T01:17:38;9.45;;;2.88;;
23140;SDS011;11739;54.750;9.124;2023-04-12T01:20:13;10.52;;;3.50;;
23140;SDS011;11739;54.750;9.124;2023-04-12T01:25:31;11.27;;;2.72;;
23140;SDS011;11739;54.750;9.124;2023-04-12T01:28:10;8.68;;;3.00;;
23140;SDS011;11739;54.750;9.124;2023-04-12T01:30:37;9.02;;;2.90;;
23140;SDS011;11739;54.750;9.124;2023-04-12T01:33:04;8.13;;;3.20;;
23140;SDS011;11739;54.750;9.124;2023-04-12T01:35:30;11.00;;;3.08;;
23140;SDS011;11739;54.750;9.124;2023-04-12T01:37:56;8.73;;;3.03;;
23140;SDS011;11739;54.750;9.124;2023-04-12T01:40:22;7.95;;;3.30;;
23140;SDS011;11739;54.750;9.124;2023-04-12T01:42:48;9.85;;;3.30;;
23140;SDS011;11739;54.750;9.124;2023-04-12T01:45:13;8.82;;;3.17;;
23140;SDS011;11739;54.750;9.124;2023-04-12T01:47:38;9.57;;;3.42;;
23140;SDS011;11739;54.750;9.124;2023-04-12T01:50:24;12.73;;;3.22;;
23140;SDS011;11739;54.750;9.124;2023-04-12T01:53:09;10.93;;;3.53;;
23140;SDS011;11739;54.750;9.124;2023-04-12T01:55:37;9.85;;;3.45;;
23140;SDS011;11739;54.750;9.124;2023-04-12T01:58:03;8.50;;;2.85;;
23140;SDS011;11739;54.750;9.124;2023-04-12T02:00:29;8.32;;;3.25;;
23140;SDS011;11739;54.750;9.124;2023-04-12T02:02:54;7.32;;;3.47;;
23140;SDS011;11739;54.750;9.124;2023-04-12T02:05:20;7.07;;;3.15;;
23140;SDS011;11739;54.750;9.124;2023-04-12T02:07:45;9.23;;;3.05;;
23140;SDS011;11739;54.750;9.124;2023-04-12T02:10:14;8.90;;;3.05;;
23140;SDS011;11739;54.750;9.124;2023-04-12T02:12:40;10.75;;;3.47;;
23140;SDS011;11739;54.750;9.124;2023-04-12T02:15:05;8.15;;;3.45;;
23140;SDS011;11739;54.750;9.124;2023-04-12T02:17:31;9.57;;;3.40;;
23140;SDS011;11739;54.750;9.124;2023-04-12T02:19:57;9.63;;;3.00;;
23140;SDS011;11739;54.750;9.124;2023-04-12T02:22:22;9.32;;;3.42;;
23140;SDS011;11739;54.750;9.124;2023-04-12T02:24:47;10.00;;;3.45;;
23140;SDS011;11739;54.750;9.124;2023-04-12T02:27:12;9.30;;;3.38;;
23140;SDS011;11739;54.750;9.124;2023-04-12T02:29:38;9.23;;;3.28;;
23140;SDS011;11739;54.750;9.124;2023-04-12T02:32:03;7.40;;;3.15;;
23140;SDS011;11739;54.750;9.124;2023-04-12T02:34:28;9.68;;;3.63;;
23140;SDS011;11739;54.750;9.124;2023-04-12T02:36:54;9.40;;;3.45;;
23140;SDS011;11739;54.750;9.124;2023-04-12T02:39:19;11.65;;;3.30;;
23140;SDS011;11739;54.750;9.124;2023-04-12T02:41:44;9.73;;;3.42;;
23140;SDS011;11739;54.750;9.124;2023-04-12T02:44:10;10.70;;;3.38;;
23140;SDS011;11739;54.750;9.124;2023-04-12T02:46:35;10.13;;;3.25;;
23140;SDS011;11739;54.750;9.124;2023-04-12T02:49:00;7.65;;;3.00;;
23140;SDS011;11739;54.750;9.124;2023-04-12T02:51:25;7.65;;;3.10;;
23140;SDS011;11739;54.750;9.124;2023-04-12T02:53:51;9.48;;;3.25;;
23140;SDS011;11739;54.750;9.124;2023-04-12T02:56:16;10.38;;;3.45;;
23140;SDS011;11739;54.750;9.124;2023-04-12T02:58:41;9.02;;;3.47;;
23140;SDS011;11739;54.750;9.124;2023-04-12T03:01:07;6.82;;;3.33;;
23140;SDS011;11739;54.750;9.124;2023-04-12T03:03:33;7.32;;;3.40;;
23140;SDS011;11739;54.750;9.124;2023-04-12T03:05:58;7.35;;;3.30;;
23140;SDS011;11739;54.750;9.124;2023-04-12T03:08:24;7.78;;;2.90;;
23140;SDS011;11739;54.750;9.124;2023-04-12T03:10:49;7.75;;;3.10;;
23140;SDS011;11739;54.750;9.124;2023-04-12T03:13:14;5.57;;;2.95;;
23140;SDS011;11739;54.750;9.124;2023-04-12T03:15:39;7.97;;;3.20;;
23140;SDS011;11739;54.750;9.124;2023-04-12T03:18:05;6.63;;;2.80;;
23140;SDS011;11739;54.750;9.124;2023-04-12T03:20:30;10.63;;;3.10;;
23140;SDS011;11739;54.750;9.124;2023-04-12T03:22:55;8.85;;;3.35;;
23140;SDS011;11739;54.750;9.124;2023-04-12T03:25:21;8.40;;;3.22;;
23140;SDS011;11739;54.750;9.124;2023-04-12T03:27:46;6.80;;;2.80;;
23140;SDS011;11739;54.750;9.124;2023-04-12T03:30:11;7.68;;;3.20;;
23140;SDS011;11739;54.750;9.124;2023-04-12T03:32:40;11.07;;;3.60;;
23140;SDS011;11739;54.750;9.124;2023-04-12T03:35:06;7.40;;;3.17;;
23140;SDS011;11739;54.750;9.124;2023-04-12T03:37:32;7.80;;;3.90;;
23140;SDS011;11739;54.750;9.124;2023-04-12T03:39:57;7.22;;;3.38;;
23140;SDS011;11739;54.750;9.124;2023-04-12T03:42:23;7.47;;;3.83;;
23140;SDS011;11739;54.750;9.124;2023-04-12T03:44:48;6.38;;;3.58;;
23140;SDS011;11739;54.750;9.124;2023-04-12T03:47:13;8.20;;;3.55;;
23140;SDS011;11739;54.750;9.124;2023-04-12T03:49:39;7.00;;;3.65;;
23140;SDS011;11739;54.750;9.124;2023-04-12T03:52:04;7.45;;;3.63;;
23140;SDS011;11739;54.750;9.124;2023-04-12T03:54:30;7.75;;;3.67;;
23140;SDS011;11739;54.750;9.124;2023-04-12T03:56:55;5.47;;;3.55;;
23140;SDS011;11739;54.750;9.124;2023-04-12T03:59:20;8.70;;;3.75;;
23140;SDS011;11739;54.750;9.124;2023-04-12T04:01:46;8.68;;;3.50;;
23140;SDS011;11739;54.750;9.124;2023-04-12T04:04:11;9.13;;;3.70;;
23140;SDS011;11739;54.750;9.124;2023-04-12T04:06:36;5.95;;;3.53;;
23140;SDS011;11739;54.750;9.124;2023-04-12T04:09:02;5.47;;;3.30;;
23140;SDS011;11739;54.750;9.124;2023-04-12T04:11:27;7.82;;;3.67;;
23140;SDS011;11739;54.750;9.124;2023-04-12T04:13:52;7.57;;;3.58;;
23140;SDS011;11739;54.750;9.124;2023-04-12T04:16:17;7.78;;;3.75;;
23140;SDS011;11739;54.750;9.124;2023-04-12T04:18:43;7.30;;;3.53;;
23140;SDS011;11739;54.750;9.124;2023-04-12T04:21:08;7.68;;;3.35;;
23140;SDS011;11739;54.750;9.124;2023-04-12T04:23:33;7.32;;;3.40;;
23140;SDS011;11739;54.750;9.124;2023-04-12T04:25:59;8.35;;;3.75;;
23140;SDS011;11739;54.750;9.124;2023-04-12T04:28:24;9.55;;;4.00;;
23140;SDS011;11739;54.750;9.124;2023-04-12T04:30:49;8.48;;;3.50;;
23140;SDS011;11739;54.750;9.124;2023-04-12T04:33:15;5.95;;;2.83;;
23140;SDS011;11739;54.750;9.124;2023-04-12T04:35:40;7.32;;;3.80;;
23140;SDS011;11739;54.750;9.124;2023-04-12T04:38:06;7.30;;;3.42;;
23140;SDS011;11739;54.750;9.124;2023-04-12T04:40:31;4.65;;;2.92;;
23140;SDS011;11739;54.750;9.124;2023-04-12T04:42:57;4.13;;;2.80;;
23140;SDS011;11739;54.750;9.124;2023-04-12T04:45:22;7.38;;;3.63;;
23140;SDS011;11739;54.750;9.124;2023-04-12T04:47:48;6.43;;;3.25;;
23140;SDS011;11739;54.750;9.124;2023-04-12T04:50:13;7.35;;;3.20;;
23140;SDS011;11739;54.750;9.124;2023-04-12T04:52:39;7.68;;;3.20;;
23140;SDS011;11739;54.750;9.124;2023-04-12T04:55:04;3.97;;;2.85;;
23140;SDS011;11739;54.750;9.124;2023-04-12T04:57:30;6.35;;;3.10;;
23140;SDS011;11739;54.750;9.124;2023-04-12T04:59:55;7.47;;;3.40;;
23140;SDS011;11739;54.750;9.124;2023-04-12T05:02:20;7.13;;;3.35;;
23140;SDS011;11739;54.750;9.124;2023-04-12T05:04:46;7.35;;;3.17;;
23140;SDS011;11739;54.750;9.124;2023-04-12T05:07:11;5.90;;;2.95;;
23140;SDS011;11739;54.750;9.124;2023-04-12T05:09:36;5.00;;;2.85;;
23140;SDS011;11739;54.750;9.124;2023-04-12T05:12:02;4.43;;;2.85;;
23140;SDS011;11739;54.750;9.124;2023-04-12T05:14:27;6.43;;;3.03;;
23140;SDS011;11739;54.750;9.124;2023-04-12T05:16:52;7.13;;;2.92;;
23140;SDS011;11739;54.750;9.124;2023-04-12T05:19:17;6.63;;;2.80;;
23140;SDS011;11739;54.750;9.124;2023-04-12T05:21:43;3.88;;;2.58;;
23140;SDS011;11739;54.750;9.124;2023-04-12T05:24:08;7.35;;;3.22;;
23140;SDS011;11739;54.750;9.124;2023-04-12T05:26:33;5.70;;;3.13;;
23140;SDS011;11739;54.750;9.124;2023-04-12T05:28:59;6.95;;;2.67;;
23140;SDS011;11739;54.750;9.124;2023-04-12T05:31:24;4.03;;;2.30;;
23140;SDS011;11739;54.750;9.124;2023-04-12T05:33:49;6.00;;;2.65;;
23140;SDS011;11739;54.750;9.124;2023-04-12T05:36:15;5.85;;;2.50;;
23140;SDS011;11739;54.750;9.124;2023-04-12T05:38:40;6.93;;;2.60;;
23140;SDS011;11739;54.750;9.124;2023-04-12T05:41:05;3.25;;;2.10;;
23140;SDS011;11739;54.750;9.124;2023-04-12T05:43:30;5.40;;;2.45;;
23140;SDS011;11739;54.750;9.124;2023-04-12T05:45:56;6.28;;;2.85;;
23140;SDS011;11739;54.750;9.124;2023-04-12T05:48:21;3.97;;;2.47;;
23140;SDS011;11739;54.750;9.124;2023-04-12T05:50:50;5.22;;;1.98;;
23140;SDS011;11739;54.750;9.124;2023-04-12T05:53:16;4.97;;;2.25;;
23140;SDS011;11739;54.750;9.124;2023-04-12T05:55:41;6.30;;;2.35;;
23140;SDS011;11739;54.750;9.124;2023-04-12T05:58:06;4.22;;;2.28;;
23140;SDS011;11739;54.750;9.124;2023-04-12T06:00:31;5.60;;;2.53;;
23140;SDS011;11739;54.750;9.124;2023-04-12T06:02:57;4.82;;;2.42;;
23140;SDS011;11739;54.750;9.124;2023-04-12T06:05:22;5.55;;;2.58;;
23140;SDS011;11739;54.750;9.124;2023-04-12T06:07:47;4.75;;;2.03;;
23140;SDS011;11739;54.750;9.124;2023-04-12T06:10:13;4.53;;;2.35;;
23140;SDS011;11739;54.750;9.124;2023-04-12T06:12:39;5.05;;;2.20;;
23140;SDS011;11739;54.750;9.124;2023-04-12T06:15:05;3.65;;;2.05;;
23140;SDS011;11739;54.750;9.124;2023-04-12T06:17:30;6.90;;;2.55;;
23140;SDS011;11739;54.750;9.124;2023-04-12T06:19:56;5.15;;;2.10;;
23140;SDS011;11739;54.750;9.124;2023-04-12T06:22:21;4.72;;;2.10;;
23140;SDS011;11739;54.750;9.124;2023-04-12T06:24:46;3.53;;;1.85;;
23140;SDS011;11739;54.750;9.124;2023-04-12T06:27:12;6.22;;;1.95;;
23140;SDS011;11739;54.750;9.124;2023-04-12T06:29:37;7.50;;;2.40;;
23140;SDS011;11739;54.750;9.124;2023-04-12T06:32:02;4.07;;;1.77;;
23140;SDS011;11739;54.750;9.124;2023-04-12T06:34:28;2.38;;;1.60;;
23140;SDS011;11739;54.750;9.124;2023-04-12T06:36:53;9.05;;;2.15;;
23140;SDS011;11739;54.750;9.124;2023-04-12T06:39:18;4.68;;;1.95;;
23140;SDS011;11739;54.750;9.124;2023-04-12T06:41:44;3.90;;;1.63;;
23140;SDS011;11739;54.750;9.124;2023-04-12T06:44:09;2.97;;;1.90;;
23140;SDS011;11739;54.750;9.124;2023-04-12T06:46:34;3.83;;;1.90;;
23140;SDS011;11739;54.750;9.124;2023-04-12T06:49:00;6.43;;;1.77;;
23140;SDS011;11739;54.750;9.124;2023-04-12T06:51:25;6.80;;;1.95;;
23140;SDS011;11739;54.750;9.124;2023-04-12T06:53:50;3.58;;;1.60;;
23140;SDS011;11739;54.750;9.124;2023-04-12T06:56:15;3.88;;;1.88;;
23140;SDS011;11739;54.750;9.124;2023-04-12T06:58:41;4.85;;;1.92;;
23140;SDS011;11739;54.750;9.124;2023-04-12T07:01:06;3.83;;;1.85;;
23140;SDS011;11739;54.750;9.124;2023-04-12T07:03:32;5.72;;;1.90;;
23140;SDS011;11739;54.750;9.124;2023-04-12T07:05:58;3.05;;;1.88;;
23140;SDS011;11739;54.750;9.124;2023-04-12T07:08:23;3.70;;;1.92;;
23140;SDS011;11739;54.750;9.124;2023-04-12T07:10:52;2.95;;;1.35;;
23140;SDS011;11739;54.750;9.124;2023-04-12T07:13:18;4.03;;;1.63;;
23140;SDS011;11739;54.750;9.124;2023-04-12T07:15:43;4.43;;;1.85;;
23140;SDS011;11739;54.750;9.124;2023-04-12T07:18:08;4.15;;;1.63;;
23140;SDS011;11739;54.750;9.124;2023-04-12T07:20:34;3.47;;;1.33;;
23140;SDS011;11739;54.750;9.124;2023-04-12T07:22:59;3.25;;;1.90;;
23140;SDS011;11739;54.750;9.124;2023-04-12T07:25:24;3.53;;;1.85;;
23140;SDS011;11739;54.750;9.124;2023-04-12T07:27:49;6.43;;;1.58;;
23140;SDS011;11739;54.750;9.124;2023-04-12T07:30:15;2.80;;;1.33;;
23140;SDS011;11739;54.750;9.124;2023-04-12T07:32:40;4.55;;;1.40;;
23140;SDS011;11739;54.750;9.124;2023-04-12T07:35:05;4.25;;;1.55;;
23140;SDS011;11739;54.750;9.124;2023-04-12T07:37:31;5.53;;;1.60;;
23140;SDS011;11739;54.750;9.124;2023-04-12T07:39:56;4.93;;;1.50;;
23140;SDS011;11739;54.750;9.124;2023-04-12T07:42:22;4.82;;;1.60;;
23140;SDS011;11739;54.750;9.124;2023-04-12T07:44:47;2.83;;;1.48;;
23140;SDS011;11739;54.750;9.124;2023-04-12T07:47:12;3.13;;;1.65;;
23140;SDS011;11739;54.750;9.124;2023-04-12T07:49:37;5.15;;;1.77;;
23140;SDS011;11739;54.750;9.124;2023-04-12T07:52:03;4.22;;;1.35;;
23140;SDS011;11739;54.750;9.124;2023-04-12T07:54:28;3.50;;;1.63;;
23140;SDS011;11739;54.750;9.124;2023-04-12T07:56:57;2.90;;;1.63;;
23140;SDS011;11739;54.750;9.124;2023-04-12T07:59:23;2.90;;;1.42;;
23140;SDS011;11739;54.750;9.124;2023-04-12T08:01:48;4.00;;;1.45;;
23140;SDS011;11739;54.750;9.124;2023-04-12T08:04:14;3.83;;;1.38;;
23140;SDS011;11739;54.750;9.124;2023-04-12T08:06:39;6.50;;;1.70;;
23140;SDS011;11739;54.750;9.124;2023-04-12T08:09:04;3.08;;;1.30;;
23140;SDS011;11739;54.750;9.124;2023-04-12T08:11:29;2.90;;;1.60;;
23140;SDS011;11739;54.750;9.124;2023-04-12T08:13:55;3.80;;;1.60;;
23140;SDS011;11739;54.750;9.124;2023-04-12T08:16:20;4.50;;;1.50;;
23140;SDS011;11739;54.750;9.124;2023-04-12T08:18:45;2.67;;;1.45;;
23140;SDS011;11739;54.750;9.124;2023-04-12T08:21:11;5.15;;;1.73;;
23140;SDS011;11739;54.750;9.124;2023-04-12T08:23:36;2.95;;;1.35;;
23140;SDS011;11739;54.750;9.124;2023-04-12T08:26:01;3.60;;;1.45;;
23140;SDS011;11739;54.750;9.124;2023-04-12T08:28:27;4.80;;;1.73;;
23140;SDS011;11739;54.750;9.124;2023-04-12T08:30:52;4.22;;;1.60;;
23140;SDS011;11739;54.750;9.124;2023-04-12T08:33:17;4.15;;;1.55;;
23140;SDS011;11739;54.750;9.124;2023-04-12T08:35:43;2.97;;;1.60;;
23140;SDS011;11739;54.750;9.124;2023-04-12T08:38:08;3.33;;;1.63;;
23140;SDS011;11739;54.750;9.124;2023-04-12T08:40:33;8.32;;;1.70;;
23140;SDS011;11739;54.750;9.124;2023-04-12T08:43:02;5.43;;;1.63;;
23140;SDS011;11739;54.750;9.124;2023-04-12T08:45:31;5.82;;;1.80;;
23140;SDS011;11739;54.750;9.124;2023-04-12T08:47:59;5.53;;;2.15;;
23140;SDS011;11739;54.750;9.124;2023-04-12T08:50:26;13.85;;;2.30;;
23140;SDS011;11739;54.750;9.124;2023-04-12T08:52:52;8.80;;;1.65;;
23140;SDS011;11739;54.750;9.124;2023-04-12T08:55:17;8.43;;;2.10;;
23140;SDS011;11739;54.750;9.124;2023-04-12T08:57:42;13.30;;;2.55;;
23140;SDS011;11739;54.750;9.124;2023-04-12T09:00:08;14.07;;;2.00;;
23140;SDS011;11739;54.750;9.124;2023-04-12T09:02:34;15.15;;;2.05;;
23140;SDS011;11739;54.750;9.124;2023-04-12T09:05:00;13.25;;;2.28;;
23140;SDS011;11739;54.750;9.124;2023-04-12T09:07:25;15.70;;;2.75;;
23140;SDS011;11739;54.750;9.124;2023-04-12T09:09:50;5.20;;;1.88;;
23140;SDS011;11739;54.750;9.124;2023-04-12T09:12:16;6.07;;;2.20;;
23140;SDS011;11739;54.750;9.124;2023-04-12T09:14:41;6.85;;;2.22;;
23140;SDS011;11739;54.750;9.124;2023-04-12T09:17:22;5.25;;;2.05;;
23140;SDS011;11739;54.750;9.124;2023-04-12T09:19:49;3.40;;;1.70;;
23140;SDS011;11739;54.750;9.124;2023-04-12T09:22:14;3.55;;;2.17;;
23140;SDS011;11739;54.750;9.124;2023-04-12T09:24:46;4.32;;;1.85;;
23140;SDS011;11739;54.750;9.124;2023-04-12T09:27:12;4.70;;;2.03;;
23140;SDS011;11739;54.750;9.124;2023-04-12T09:29:38;4.22;;;1.88;;
23140;SDS011;11739;54.750;9.124;2023-04-12T09:32:07;6.78;;;2.25;;
23140;SDS011;11739;54.750;9.124;2023-04-12T09:34:33;2.38;;;1.48;;
23140;SDS011;11739;54.750;9.124;2023-04-12T09:36:59;3.55;;;2.05;;
23140;SDS011;11739;54.750;9.124;2023-04-12T09:39:33;4.43;;;1.90;;
23140;SDS011;11739;54.750;9.124;2023-04-12T09:42:09;4.22;;;2.17;;
23140;SDS011;11739;54.750;9.124;2023-04-12T09:44:35;5.93;;;2.08;;
23140;SDS011;11739;54.750;9.124;2023-04-12T09:47:01;3.25;;;1.98;;
23140;SDS011;11739;54.750;9.124;2023-04-12T09:49:40;5.47;;;1.75;;
23140;SDS011;11739;54.750;9.124;2023-04-12T09:52:06;2.90;;;1.60;;
23140;SDS011;11739;54.750;9.124;2023-04-12T09:54:36;5.97;;;2.25;;
23140;SDS011;11739;54.750;9.124;2023-04-12T09:57:03;3.08;;;1.83;;
23140;SDS011;11739;54.750;9.124;2023-04-12T09:59:31;5.50;;;2.15;;
23140;SDS011;11739;54.750;9.124;2023-04-12T10:02:00;4.20;;;2.00;;
23140;SDS011;11739;54.750;9.124;2023-04-12T10:04:30;5.05;;;2.03;;
23140;SDS011;11739;54.750;9.124;2023-04-12T10:06:57;5.50;;;1.80;;
23140;SDS011;11739;54.750;9.124;2023-04-12T10:09:24;3.58;;;1.65;;
23140;SDS011;11739;54.750;9.124;2023-04-12T10:11:49;3.97;;;1.90;;
23140;SDS011;11739;54.750;9.124;2023-04-12T10:14:15;3.67;;;1.80;;
23140;SDS011;11739;54.750;9.124;2023-04-12T10:16:41;3.42;;;1.98;;
23140;SDS011;11739;54.750;9.124;2023-04-12T10:19:06;3.22;;;2.05;;
23140;SDS011;11739;54.750;9.124;2023-04-12T10:21:33;4.32;;;1.80;;
23140;SDS011;11739;54.750;9.124;2023-04-12T10:23:58;3.95;;;1.85;;
23140;SDS011;11739;54.750;9.124;2023-04-12T10:26:23;2.50;;;1.80;;
23140;SDS011;11739;54.750;9.124;2023-04-12T10:31:55;5.00;;;1.90;;
23140;SDS011;11739;54.750;9.124;2023-04-12T10:34:30;2.83;;;1.60;;
23140;SDS011;11739;54.750;9.124;2023-04-12T10:36:56;4.45;;;2.05;;
23140;SDS011;11739;54.750;9.124;2023-04-12T10:39:36;3.70;;;2.00;;
23140;SDS011;11739;54.750;9.124;2023-04-12T10:42:21;3.28;;;1.92;;
23140;SDS011;11739;54.750;9.124;2023-04-12T10:44:50;4.10;;;1.80;;
23140;SDS011;11739;54.750;9.124;2023-04-12T10:50:20;3.30;;;1.55;;
23140;SDS011;11739;54.750;9.124;2023-04-12T10:55:33;3.58;;;1.60;;
23140;SDS011;11739;54.750;9.124;2023-04-12T10:57:59;5.95;;;1.90;;
23140;SDS011;11739;54.750;9.124;2023-04-12T11:00:24;3.78;;;2.00;;
23140;SDS011;11739;54.750;9.124;2023-04-12T11:03:21;4.60;;;1.88;;
23140;SDS011;11739;54.750;9.124;2023-04-12T11:05:59;4.82;;;2.00;;
23140;SDS011;11739;54.750;9.124;2023-04-12T11:08:27;4.38;;;1.70;;
23140;SDS011;11739;54.750;9.124;2023-04-12T11:10:58;3.20;;;1.90;;
23140;SDS011;11739;54.750;9.124;2023-04-12T11:13:26;3.95;;;2.10;;
23140;SDS011;11739;54.750;9.124;2023-04-12T11:15:53;4.22;;;1.90;;
23140;SDS011;11739;54.750;9.124;2023-04-12T11:18:19;3.35;;;2.20;;
23140;SDS011;11739;54.750;9.124;2023-04-12T11:20:45;3.97;;;2.10;;
23140;SDS011;11739;54.750;9.124;2023-04-12T11:23:11;2.78;;;1.70;;
23140;SDS011;11739;54.750;9.124;2023-04-12T11:25:36;5.78;;;2.17;;
23140;SDS011;11739;54.750;9.124;2023-04-12T11:28:01;6.78;;;2.20;;
23140;SDS011;11739;54.750;9.124;2023-04-12T11:30:27;5.00;;;1.90;;
23140;SDS011;11739;54.750;9.124;2023-04-12T11:32:52;3.35;;;1.80;;
23140;SDS011;11739;54.750;9.124;2023-04-12T11:35:17;6.63;;;2.05;;
23140;SDS011;11739;54.750;9.124;2023-04-12T11:37:43;5.80;;;2.20;;
23140;SDS011;11739;54.750;9.124;2023-04-12T11:40:08;5.95;;;2.58;;
23140;SDS011;11739;54.750;9.124;2023-04-12T11:42:33;4.47;;;2.38;;
23140;SDS011;11739;54.750;9.124;2023-04-12T11:44:59;5.47;;;2.35;;
23140;SDS011;11739;54.750;9.124;2023-04-12T11:47:24;5.07;;;2.33;;
23140;SDS011;11739;54.750;9.124;2023-04-12T11:49:51;3.38;;;2.05;;
23140;SDS011;11739;54.750;9.124;2023-04-12T11:52:18;3.03;;;2.17;;
23140;SDS011;11739;54.750;9.124;2023-04-12T11:54:47;4.90;;;2.20;;
23140;SDS011;11739;54.750;9.124;2023-04-12T11:57:14;3.38;;;2.13;;
23140;SDS011;11739;54.750;9.124;2023-04-12T11:59:41;3.38;;;2.40;;
23140;SDS011;11739;54.750;9.124;2023-04-12T12:02:08;3.83;;;2.30;;
23140;SDS011;11739;54.750;9.124;2023-04-12T12:04:33;4.43;;;2.30;;
23140;SDS011;11739;54.750;9.124;2023-04-12T12:06:58;5.70;;;2.42;;
23140;SDS011;11739;54.750;9.124;2023-04-12T12:09:24;6.35;;;2.25;;
23140;SDS011;11739;54.750;9.124;2023-04-12T12:11:50;4.07;;;1.95;;
23140;SDS011;11739;54.750;9.124;2023-04-12T12:14:22;3.67;;;2.00;;
23140;SDS011;11739;54.750;9.124;2023-04-12T12:16:54;3.35;;;2.30;;
23140;SDS011;11739;54.750;9.124;2023-04-12T12:19:35;1.73;;;1.42;;
23140;SDS011;11739;54.750;9.124;2023-04-12T12:24:51;4.63;;;1.95;;
23140;SDS011;11739;54.750;9.124;2023-04-12T12:27:17;2.95;;;1.95;;
23140;SDS011;11739;54.750;9.124;2023-04-12T12:29:47;4.43;;;1.90;;
23140;SDS011;11739;54.750;9.124;2023-04-12T12:32:13;2.63;;;2.00;;
23140;SDS011;11739;54.750;9.124;2023-04-12T12:34:39;3.78;;;1.85;;
23140;SDS011;11739;54.750;9.124;2023-04-12T12:37:11;4.00;;;1.85;;
23140;SDS011;11739;54.750;9.124;2023-04-12T12:39:36;3.72;;;1.77;;
23140;SDS011;11739;54.750;9.124;2023-04-12T12:42:02;4.60;;;1.95;;
23140;SDS011;11739;54.750;9.124;2023-04-12T12:44:27;2.13;;;1.67;;
23140;SDS011;11739;54.750;9.124;2023-04-12T12:46:52;5.28;;;2.25;;
23140;SDS011;11739;54.750;9.124;2023-04-12T12:49:18;4.50;;;1.75;;
23140;SDS011;11739;54.750;9.124;2023-04-12T12:51:43;3.13;;;1.73;;
23140;SDS011;11739;54.750;9.124;2023-04-12T12:54:08;2.20;;;1.60;;
23140;SDS011;11739;54.750;9.124;2023-04-12T12:56:34;2.85;;;2.10;;
23140;SDS011;11739;54.750;9.124;2023-04-12T12:58:59;2.85;;;1.85;;
23140;SDS011;11739;54.750;9.124;2023-04-12T13:01:24;4.50;;;2.22;;
23140;SDS011;11739;54.750;9.124;2023-04-12T13:03:49;1.88;;;1.67;;
23140;SDS011;11739;54.750;9.124;2023-04-12T13:06:15;2.42;;;1.90;;
23140;SDS011;11739;54.750;9.124;2023-04-12T13:08:40;2.53;;;2.00;;
23140;SDS011;11739;54.750;9.124;2023-04-12T13:11:05;4.32;;;2.10;;
23140;SDS011;11739;54.750;9.124;2023-04-12T13:13:31;2.72;;;1.67;;
23140;SDS011;11739;54.750;9.124;2023-04-12T13:15:56;4.22;;;2.50;;
23140;SDS011;11739;54.750;9.124;2023-04-12T13:18:21;2.80;;;1.80;;
23140;SDS011;11739;54.750;9.124;2023-04-12T13:20:47;4.57;;;2.10;;
23140;SDS011;11739;54.750;9.124;2023-04-12T13:23:12;3.95;;;1.95;;
23140;SDS011;11739;54.750;9.124;2023-04-12T13:25:38;2.58;;;1.80;;
23140;SDS011;11739;54.750;9.124;2023-04-12T13:28:03;2.78;;;1.88;;
23140;SDS011;11739;54.750;9.124;2023-04-12T13:30:29;3.03;;;2.13;;
23140;SDS011;11739;54.750;9.124;2023-04-12T13:32:54;5.07;;;2.20;;
23140;SDS011;11739;54.750;9.124;2023-04-12T13:35:19;3.15;;;2.15;;
23140;SDS011;11739;54.750;9.124;2023-04-12T13:37:44;2.47;;;1.88;;
23140;SDS011;11739;54.750;9.124;2023-04-12T13:40:10;6.03;;;4.03;;
23140;SDS011;11739;54.750;9.124;2023-04-12T13:42:35;9.23;;;5.05;;
23140;SDS011;11739;54.750;9.124;2023-04-12T13:45:01;12.00;;;8.10;;
23140;SDS011;11739;54.750;9.124;2023-04-12T13:47:26;10.95;;;9.18;;
23140;SDS011;11739;54.750;9.124;2023-04-12T13:49:51;8.13;;;7.32;;
23140;SDS011;11739;54.750;9.124;2023-04-12T13:52:17;10.13;;;7.10;;
23140;SDS011;11739;54.750;9.124;2023-04-12T13:54:42;10.07;;;8.88;;
23140;SDS011;11739;54.750;9.124;2023-04-12T13:57:08;9.02;;;8.23;;
23140;SDS011;11739;54.750;9.124;2023-04-12T13:59:33;9.95;;;7.40;;
23140;SDS011;11739;54.750;9.124;2023-04-12T14:01:59;8.07;;;7.15;;
23140;SDS011;11739;54.750;9.124;2023-04-12T14:04:26;8.95;;;5.65;;
23140;SDS011;11739;54.750;9.124;2023-04-12T14:06:51;6.93;;;4.63;;
23140;SDS011;11739;54.750;9.124;2023-04-12T14:09:27;5.28;;;4.72;;
23140;SDS011;11739;54.750;9.124;2023-04-12T14:11:53;4.05;;;3.67;;
23140;SDS011;11739;54.750;9.124;2023-04-12T14:14:20;3.45;;;3.15;;
23140;SDS011;11739;54.750;9.124;2023-04-12T14:16:47;3.10;;;2.80;;
23140;SDS011;11739;54.750;9.124;2023-04-12T14:19:13;3.58;;;2.97;;
23140;SDS011;11739;54.750;9.124;2023-04-12T14:21:38;3.47;;;2.30;;
23140;SDS011;11739;54.750;9.124;2023-04-12T14:24:04;2.30;;;2.00;;
23140;SDS011;11739;54.750;9.124;2023-04-12T14:26:29;4.10;;;2.40;;
23140;SDS011;11739;54.750;9.124;2023-04-12T14:28:54;3.55;;;2.45;;
23140;SDS011;11739;54.750;9.124;2023-04-12T14:31:20;2.42;;;2.22;;
23140;SDS011;11739;54.750;9.124;2023-04-12T14:33:45;7.80;;;7.00;;
23140;SDS011;11739;54.750;9.124;2023-04-12T14:36:10;12.52;;;8.27;;
23140;SDS011;11739;54.750;9.124;2023-04-12T14:38:35;10.30;;;6.85;;
23140;SDS011;11739;54.750;9.124;2023-04-12T14:41:05;11.63;;;6.72;;
23140;SDS011;11739;54.750;9.124;2023-04-12T14:43:31;8.85;;;5.70;;
23140;SDS011;11739;54.750;9.124;2023-04-12T14:45:56;5.30;;;4.03;;
23140;SDS011;11739;54.750;9.124;2023-04-12T14:48:22;6.30;;;4.00;;
23140;SDS011;11739;54.750;9.124;2023-04-12T14:50:47;7.00;;;4.28;;
23140;SDS011;11739;54.750;9.124;2023-04-12T14:53:12;3.92;;;3.55;;
23140;SDS011;11739;54.750;9.124;2023-04-12T14:55:38;3.53;;;3.22;;
23140;SDS011;11739;54.750;9.124;2023-04-12T14:58:03;4.78;;;3.42;;